Time;durP1;ratioP1;P1;durP2;ratioP2;P2;SDS_P1;SDS_P2;PMS_P1;PMS_P2;Temp;Humidity;BMP_temperature;BMP_pressure;BME280_temperature;BME280_humidity;BME280_pressure;Samples;Min_cycle;Max_cycle;Signal;HPM_P1;HPM_P2
2022/11/17 00:02:05;;;;;;;;;;;11.10;96.60;;;;;;4963125;28;19930;-73
2022/11/17 00:04:32;;;;;;;;;;;11.10;96.60;;;;;;4973045;28;19941;-74
2022/11/17 00:06:59;;;;;;;;;;;11.00;96.60;;;;;;4962037;28;19934;-74
2022/11/17 00:09:25;;;;;;;;;;;11.10;96.70;;;;;;4954328;28;19938;-75
2022/11/17 00:14:39;;;;;;;;;;;11.00;96.70;;;;;;4957374;28;20052;-73
2022/11/17 00:17:07;;;;;;;;;;;11.00;96.70;;;;;;4959748;28;19931;-75
2022/11/17 00:22:17;;;;;;;;;;;11.00;96.70;;;;;;4953725;28;20359;-74
2022/11/17 00:24:44;;;;;;;;;;;11.00;96.70;;;;;;4960717;28;20646;-74
2022/11/17 00:27:12;;;;;;;;;;;11.00;96.70;;;;;;4956451;28;20464;-75
2022/11/17 00:29:39;;;;;;;;;;;10.90;96.70;;;;;;4960046;28;19984;-74
2022/11/17 00:34:50;;;;;;;;;;;11.00;96.80;;;;;;4957729;28;19933;-75
2022/11/17 00:37:16;;;;;;;;;;;10.90;96.70;;;;;;4962795;28;19930;-75
2022/11/17 00:39:43;;;;;;;;;;;11.00;96.80;;;;;;4961484;28;19993;-72
2022/11/17 00:42:09;;;;;;;;;;;10.90;96.70;;;;;;4956882;28;19930;-73
2022/11/17 00:44:37;;;;;;;;;;;10.90;96.70;;;;;;4953359;28;19931;-75
2022/11/17 00:47:04;;;;;;;;;;;10.90;96.70;;;;;;4958748;28;19934;-72
2022/11/17 00:49:30;;;;;;;;;;;10.90;96.70;;;;;;4955194;28;19930;-75
2022/11/17 00:51:57;;;;;;;;;;;10.90;96.70;;;;;;4957144;28;19937;-73
2022/11/17 00:54:24;;;;;;;;;;;10.90;96.70;;;;;;4957602;28;20005;-74
2022/11/17 00:56:50;;;;;;;;;;;10.90;96.80;;;;;;4953666;28;20676;-74
2022/11/17 00:59:17;;;;;;;;;;;10.90;96.80;;;;;;4955901;28;19930;-75
2022/11/17 01:01:45;;;;;;;;;;;10.90;96.80;;;;;;4960321;28;19946;-75
2022/11/17 01:04:12;;;;;;;;;;;10.90;96.80;;;;;;4959657;28;19946;-76
2022/11/17 01:06:39;;;;;;;;;;;10.90;96.80;;;;;;4961020;28;19930;-75
2022/11/17 01:09:08;;;;;;;;;;;10.90;96.80;;;;;;4960344;28;19930;-74
2022/11/17 01:11:34;;;;;;;;;;;10.90;96.80;;;;;;4962117;28;19933;-73
2022/11/17 01:14:01;;;;;;;;;;;10.90;96.80;;;;;;4959398;28;19930;-75
2022/11/17 01:16:28;;;;;;;;;;;10.80;96.80;;;;;;4964918;28;19937;-74
2022/11/17 01:18:58;;;;;;;;;;;10.90;96.90;;;;;;4959133;28;20357;-75
2022/11/17 01:21:25;;;;;;;;;;;10.90;96.90;;;;;;4961480;28;19937;-74
2022/11/17 01:23:54;;;;;;;;;;;10.90;96.90;;;;;;4957621;28;19937;-75
2022/11/17 01:26:22;;;;;;;;;;;10.90;96.90;;;;;;4961000;28;19958;-75
2022/11/17 01:28:48;;;;;;;;;;;10.90;96.90;;;;;;4962746;28;19957;-73
2022/11/17 01:31:16;;;;;;;;;;;10.80;96.90;;;;;;4954923;28;20455;-73
2022/11/17 01:33:43;;;;;;;;;;;10.80;96.90;;;;;;4953047;28;21698;-75
2022/11/17 01:36:13;;;;;;;;;;;10.90;96.90;;;;;;4957301;28;19930;-73
2022/11/17 01:38:39;;;;;;;;;;;10.80;96.90;;;;;;4956364;28;19934;-74
2022/11/17 01:41:07;;;;;;;;;;;10.80;96.90;;;;;;4955452;28;20375;-76
2022/11/17 01:43:36;;;;;;;;;;;10.80;96.90;;;;;;4954145;28;20457;-74
2022/11/17 01:46:02;;;;;;;;;;;10.80;96.90;;;;;;4959138;28;19941;-74
2022/11/17 01:48:29;;;;;;;;;;;10.80;96.90;;;;;;4963942;28;20600;-75
2022/11/17 01:50:56;;;;;;;;;;;10.80;96.90;;;;;;4961230;28;19930;-74
2022/11/17 01:53:27;;;;;;;;;;;10.80;96.90;;;;;;4960469;28;19934;-73
2022/11/17 01:55:55;;;;;;;;;;;10.80;96.90;;;;;;4963791;28;19934;-75
2022/11/17 01:58:25;;;;;;;;;;;10.80;96.90;;;;;;4962867;28;19930;-75
2022/11/17 02:00:52;;;;;;;;;;;10.80;96.90;;;;;;4958302;28;19931;-75
2022/11/17 02:03:19;;;;;;;;;;;10.80;96.90;;;;;;4955606;28;19936;-74
2022/11/17 02:05:49;;;;;;;;;;;10.80;96.90;;;;;;4958758;28;19938;-73
2022/11/17 02:08:16;;;;;;;;;;;10.80;96.90;;;;;;4955228;28;19930;-74
2022/11/17 02:10:45;;;;;;;;;;;10.80;96.90;;;;;;4957366;28;19931;-75
2022/11/17 02:13:12;;;;;;;;;;;10.80;96.90;;;;;;4958811;28;19929;-75
2022/11/17 02:15:38;;;;;;;;;;;10.80;96.90;;;;;;4957731;28;20311;-74
2022/11/17 02:18:05;;;;;;;;;;;10.80;96.90;;;;;;4960733;28;19941;-75
2022/11/17 02:20:45;;;;;;;;;;;10.80;96.90;;;;;;4951584;28;20400;-75
2022/11/17 02:23:26;;;;;;;;;;;10.80;96.90;;;;;;4954082;28;19937;-75
2022/11/17 02:26:01;;;;;;;;;;;10.70;96.90;;;;;;4955635;28;19937;-75
2022/11/17 02:28:31;;;;;;;;;;;10.80;96.90;;;;;;4952024;28;19937;-74
2022/11/17 02:31:05;;;;;;;;;;;10.80;96.90;;;;;;4954104;28;19931;-75
2022/11/17 02:33:36;;;;;;;;;;;10.80;97.00;;;;;;4955949;28;19930;-74
2022/11/17 02:36:05;;;;;;;;;;;10.70;97.00;;;;;;4956107;28;19937;-73
2022/11/17 02:38:35;;;;;;;;;;;10.70;96.90;;;;;;4952406;28;19930;-75
2022/11/17 02:41:05;;;;;;;;;;;10.70;96.90;;;;;;4957716;28;19953;-74
2022/11/17 02:46:22;;;;;;;;;;;10.70;96.90;;;;;;4953683;28;19937;-74
2022/11/17 02:48:51;;;;;;;;;;;10.70;96.90;;;;;;4957811;28;19933;-76
2022/11/17 02:51:19;;;;;;;;;;;10.70;96.90;;;;;;4949475;28;20687;-74
2022/11/17 02:53:46;;;;;;;;;;;10.70;96.90;;;;;;4950989;28;19931;-75
2022/11/17 02:56:13;;;;;;;;;;;10.70;96.90;;;;;;4961035;28;19952;-74
2022/11/17 02:58:41;;;;;;;;;;;10.70;96.90;;;;;;4955104;28;19930;-74
2022/11/17 03:01:14;;;;;;;;;;;10.70;96.90;;;;;;4956956;28;19941;-74
2022/11/17 03:03:47;;;;;;;;;;;10.70;97.20;;;;;;4959179;28;19938;-74
2022/11/17 03:06:19;;;;;;;;;;;10.70;96.90;;;;;;4959717;28;20404;-75
2022/11/17 03:08:47;;;;;;;;;;;10.60;96.80;;;;;;4954507;28;19941;-74
2022/11/17 03:11:14;;;;;;;;;;;10.70;96.90;;;;;;4953127;28;22092;-75
2022/11/17 03:13:46;;;;;;;;;;;10.60;96.80;;;;;;4959190;28;19931;-74
2022/11/17 03:16:16;;;;;;;;;;;10.70;96.90;;;;;;4959391;28;19958;-74
2022/11/17 03:18:47;;;;;;;;;;;10.60;96.90;;;;;;4958579;28;19956;-75
2022/11/17 03:21:16;;;;;;;;;;;10.60;96.90;;;;;;4956463;28;19965;-75
2022/11/17 03:23:45;;;;;;;;;;;10.60;96.90;;;;;;4957274;28;20388;-75
2022/11/17 03:26:12;;;;;;;;;;;10.70;97.00;;;;;;4956117;28;19930;-75
2022/11/17 03:28:40;;;;;;;;;;;10.70;97.00;;;;;;4957012;28;19942;-74
2022/11/17 03:31:10;;;;;;;;;;;10.60;97.00;;;;;;4962771;28;19941;-74
2022/11/17 03:33:37;;;;;;;;;;;10.70;97.00;;;;;;4956809;28;19934;-75
2022/11/17 03:36:06;;;;;;;;;;;10.60;97.00;;;;;;4961369;28;19977;-75
2022/11/17 03:38:35;;;;;;;;;;;10.60;97.00;;;;;;4957381;28;20039;-74
2022/11/17 03:41:02;;;;;;;;;;;10.60;97.00;;;;;;4957502;28;19930;-75
2022/11/17 03:43:30;;;;;;;;;;;10.60;97.00;;;;;;4952569;28;19930;-75
2022/11/17 03:46:00;;;;;;;;;;;10.60;97.10;;;;;;4957092;28;19938;-74
2022/11/17 03:48:29;;;;;;;;;;;10.60;97.10;;;;;;4956870;28;19937;-75
2022/11/17 03:50:58;;;;;;;;;;;10.60;97.10;;;;;;4960961;28;19930;-74
2022/11/17 03:53:25;;;;;;;;;;;10.60;97.10;;;;;;4959720;28;19934;-75
2022/11/17 03:55:55;;;;;;;;;;;10.60;97.20;;;;;;4958459;28;19934;-74
2022/11/17 03:58:22;;;;;;;;;;;10.50;97.10;;;;;;4958054;28;19937;-74
2022/11/17 04:00:50;;;;;;;;;;;10.50;97.10;;;;;;4961310;28;19929;-74
2022/11/17 04:03:17;;;;;;;;;;;10.50;97.20;;;;;;4957730;28;19935;-74
2022/11/17 04:05:45;;;;;;;;;;;10.60;97.20;;;;;;4965324;28;19930;-73
2022/11/17 04:08:12;;;;;;;;;;;10.50;97.20;;;;;;4960578;28;19934;-74
2022/11/17 04:16:04;;;;;;;;;;;10.60;97.30;;;;;;4961042;28;20044;-74
2022/11/17 04:18:30;;;;;;;;;;;10.60;97.30;;;;;;4959952;28;19953;-74
2022/11/17 04:20:58;;;;;;;;;;;10.50;97.20;;;;;;4965424;28;19953;-75
2022/11/17 04:23:26;;;;;;;;;;;10.50;97.30;;;;;;4971740;28;20335;-74
2022/11/17 04:28:39;;;;;;;;;;;10.50;97.30;;;;;;4956170;28;19948;-73
2022/11/17 04:31:07;;;;;;;;;;;10.50;97.30;;;;;;4957898;28;20568;-75
2022/11/17 04:33:34;;;;;;;;;;;10.50;97.30;;;;;;4962202;28;20465;-75
2022/11/17 04:36:03;;;;;;;;;;;10.50;97.30;;;;;;4965015;28;19938;-73
2022/11/17 04:38:29;;;;;;;;;;;10.50;97.30;;;;;;4961467;28;19942;-74
2022/11/17 04:43:44;;;;;;;;;;;10.50;97.40;;;;;;4972296;23;20022;-78
2022/11/17 04:46:11;;;;;;;;;;;10.50;97.40;;;;;;4959090;28;20074;-78
2022/11/17 04:48:38;;;;;;;;;;;10.50;97.40;;;;;;4963633;28;19941;-79
2022/11/17 04:51:05;;;;;;;;;;;10.50;97.40;;;;;;4961742;28;19934;-79
2022/11/17 04:53:32;;;;;;;;;;;10.40;97.40;;;;;;4951829;28;19930;-77
2022/11/17 04:55:59;;;;;;;;;;;10.50;97.50;;;;;;4959712;28;20400;-77
2022/11/17 04:58:26;;;;;;;;;;;10.40;97.40;;;;;;4954748;28;19941;-78
2022/11/17 05:00:52;;;;;;;;;;;10.40;97.50;;;;;;4956176;28;19930;-79
2022/11/17 05:03:19;;;;;;;;;;;10.40;97.50;;;;;;4962874;28;19930;-79
2022/11/17 05:05:46;;;;;;;;;;;10.40;97.50;;;;;;4954721;28;19930;-79
2022/11/17 05:08:14;;;;;;;;;;;10.40;97.50;;;;;;4957493;28;19930;-78
2022/11/17 05:13:25;;;;;;;;;;;10.50;97.50;;;;;;4958430;28;19999;-79
2022/11/17 05:18:36;;;;;;;;;;;10.40;97.50;;;;;;4956377;28;20011;-80
2022/11/17 05:21:03;;;;;;;;;;;10.40;97.60;;;;;;4956748;28;19930;-77
2022/11/17 05:26:15;;;;;;;;;;;10.40;97.60;;;;;;4964977;28;19952;-79
2022/11/17 05:28:42;;;;;;;;;;;10.40;97.60;;;;;;4958192;28;19947;-79
2022/11/17 05:31:09;;;;;;;;;;;10.40;97.60;;;;;;4955039;28;20411;-80
2022/11/17 05:33:35;;;;;;;;;;;10.40;97.60;;;;;;4957177;28;19934;-80
2022/11/17 05:36:02;;;;;;;;;;;10.40;97.60;;;;;;4958031;28;19938;-79
2022/11/17 05:38:28;;;;;;;;;;;10.40;97.60;;;;;;4955855;28;19942;-80
2022/11/17 05:40:56;;;;;;;;;;;10.40;98.00;;;;;;4954211;28;19940;-80
2022/11/17 05:43:23;;;;;;;;;;;10.40;97.70;;;;;;4957956;28;19937;-79
2022/11/17 05:45:49;;;;;;;;;;;10.30;97.60;;;;;;4954133;28;19937;-79
2022/11/17 05:48:16;;;;;;;;;;;10.30;97.70;;;;;;4952136;28;19941;-79
2022/11/17 05:50:43;;;;;;;;;;;10.40;97.70;;;;;;4953965;28;19946;-79
2022/11/17 05:53:09;;;;;;;;;;;10.40;97.70;;;;;;4959742;28;19930;-79
2022/11/17 05:55:36;;;;;;;;;;;10.30;97.70;;;;;;4955992;28;19932;-79
2022/11/17 05:58:06;;;;;;;;;;;10.40;97.70;;;;;;4958521;28;19938;-79
2022/11/17 06:00:33;;;;;;;;;;;10.30;97.70;;;;;;4959163;28;19945;-78
2022/11/17 06:03:02;;;;;;;;;;;10.30;97.70;;;;;;4952916;28;19985;-78
2022/11/17 06:05:28;;;;;;;;;;;10.30;97.70;;;;;;4952544;28;19934;-79
2022/11/17 06:07:56;;;;;;;;;;;10.30;97.80;;;;;;4952824;28;19942;-79
2022/11/17 06:10:23;;;;;;;;;;;10.30;97.80;;;;;;4949905;28;19930;-79
2022/11/17 06:12:50;;;;;;;;;;;10.30;97.80;;;;;;4958170;28;19937;-80
2022/11/17 06:15:18;;;;;;;;;;;10.30;98.10;;;;;;4953835;28;19930;-79
2022/11/17 06:17:47;;;;;;;;;;;10.30;97.80;;;;;;4954690;28;20030;-78
2022/11/17 06:20:18;;;;;;;;;;;10.30;97.90;;;;;;4951711;28;19938;-78
2022/11/17 06:22:45;;;;;;;;;;;10.30;97.90;;;;;;4950019;28;19935;-78
2022/11/17 06:25:11;;;;;;;;;;;10.30;97.90;;;;;;4957881;28;20471;-79
2022/11/17 06:27:38;;;;;;;;;;;10.30;97.90;;;;;;4946130;28;19941;-80
2022/11/17 06:30:06;;;;;;;;;;;10.30;97.90;;;;;;4952888;28;19972;-79
2022/11/17 06:32:34;;;;;;;;;;;10.30;98.00;;;;;;4957280;28;19930;-78
2022/11/17 06:35:03;;;;;;;;;;;10.30;98.00;;;;;;4961008;28;20380;-79
2022/11/17 06:37:29;;;;;;;;;;;10.20;97.90;;;;;;4952812;28;19973;-79
2022/11/17 06:39:56;;;;;;;;;;;10.30;98.00;;;;;;4941751;28;19941;-79
2022/11/17 06:43:02;;;;;;;;;;;10.30;98.00;;;;;;4933805;28;19931;-79
2022/11/17 06:45:11;;;;;;;;;;;10.30;98.00;;;;;;4955281;28;20595;-81
2022/11/17 06:47:39;;;;;;;;;;;10.30;98.00;;;;;;4961070;28;19934;-81
2022/11/17 06:50:06;;;;;;;;;;;10.30;98.00;;;;;;4956692;28;20008;-81
2022/11/17 06:52:32;;;;;;;;;;;10.30;98.00;;;;;;4958717;28;19941;-81
2022/11/17 06:54:59;;;;;;;;;;;10.30;98.00;;;;;;4951456;28;19935;-79
2022/11/17 06:57:25;;;;;;;;;;;10.30;98.00;;;;;;4959181;28;20343;-81
2022/11/17 06:59:52;;;;;;;;;;;10.30;98.00;;;;;;4951468;28;19957;-80
2022/11/17 07:02:19;;;;;;;;;;;10.30;98.00;;;;;;4955738;28;19930;-81
2022/11/17 07:04:47;;;;;;;;;;;10.10;98.00;;;;;;4963647;28;19934;-81
2022/11/17 07:07:13;;;;;;;;;;;10.30;98.10;;;;;;4955411;28;19965;-81
2022/11/17 07:09:43;;;;;;;;;;;10.20;98.10;;;;;;4951330;28;19934;-81
2022/11/17 07:12:09;;;;;;;;;;;10.20;98.20;;;;;;4949943;28;20391;-81
2022/11/17 07:14:36;;;;;;;;;;;10.20;98.10;;;;;;4953088;28;19940;-81
2022/11/17 07:17:02;;;;;;;;;;;10.20;98.10;;;;;;4956943;28;19937;-81
2022/11/17 07:19:29;;;;;;;;;;;10.20;98.10;;;;;;4949862;28;20668;-82
2022/11/17 07:21:57;;;;;;;;;;;10.20;98.10;;;;;;4958359;28;19953;-81
2022/11/17 07:24:23;;;;;;;;;;;10.20;98.20;;;;;;4962254;28;19930;-81
2022/11/17 07:26:50;;;;;;;;;;;10.20;98.20;;;;;;4956856;28;19934;-81
2022/11/17 07:29:17;;;;;;;;;;;10.20;98.20;;;;;;4959188;28;19937;-81
2022/11/17 07:31:43;;;;;;;;;;;10.20;98.20;;;;;;4950957;28;19930;-80
2022/11/17 07:34:10;;;;;;;;;;;10.20;98.20;;;;;;4963083;28;19937;-81
2022/11/17 07:36:36;;;;;;;;;;;10.20;98.20;;;;;;4952873;28;19930;-81
2022/11/17 07:39:05;;;;;;;;;;;10.20;98.20;;;;;;4957049;28;19934;-80
2022/11/17 07:41:32;;;;;;;;;;;10.20;98.30;;;;;;4954158;28;19934;-78
2022/11/17 07:43:58;;;;;;;;;;;10.20;98.30;;;;;;4952835;28;19941;-79
2022/11/17 07:46:25;;;;;;;;;;;10.20;98.30;;;;;;4957781;28;19942;-77
2022/11/17 07:48:53;;;;;;;;;;;10.20;98.30;;;;;;4957640;28;19945;-78
2022/11/17 07:51:20;;;;;;;;;;;10.20;98.30;;;;;;4961529;28;19953;-78
2022/11/17 07:53:46;;;;;;;;;;;10.20;98.30;;;;;;4958682;28;19930;-78
2022/11/17 07:56:14;;;;;;;;;;;10.20;98.30;;;;;;4956886;28;19937;-79
2022/11/17 07:58:41;;;;;;;;;;;10.20;98.30;;;;;;4953714;28;19930;-78
2022/11/17 08:01:08;;;;;;;;;;;10.20;98.40;;;;;;4953843;28;20315;-78
2022/11/17 08:03:35;;;;;;;;;;;10.30;98.40;;;;;;4953659;28;19930;-78
2022/11/17 08:06:01;;;;;;;;;;;10.20;98.40;;;;;;4954880;28;21104;-79
2022/11/17 08:08:28;;;;;;;;;;;10.20;98.40;;;;;;4954751;28;20258;-77
2022/11/17 08:10:54;;;;;;;;;;;10.30;98.40;;;;;;4956648;28;19931;-78
2022/11/17 08:13:24;;;;;;;;;;;10.20;98.40;;;;;;4959038;28;19937;-77
2022/11/17 08:15:55;;;;;;;;;;;10.30;98.40;;;;;;4956777;28;19986;-78
2022/11/17 08:18:21;;;;;;;;;;;10.30;98.40;;;;;;4955471;28;21265;-78
2022/11/17 08:20:48;;;;;;;;;;;10.20;98.30;;;;;;4953454;28;20315;-78
2022/11/17 08:23:14;;;;;;;;;;;10.20;98.30;;;;;;4955193;28;20285;-78
2022/11/17 08:25:41;;;;;;;;;;;10.20;98.30;;;;;;4956559;28;20266;-78
2022/11/17 08:28:08;;;;;;;;;;;10.30;98.30;;;;;;4956755;28;19930;-78
2022/11/17 08:30:36;;;;;;;;;;;10.30;98.20;;;;;;4958460;28;20012;-78
2022/11/17 08:33:02;;;;;;;;;;;10.30;98.20;;;;;;4954766;28;19935;-78
2022/11/17 08:35:29;;;;;;;;;;;10.30;98.20;;;;;;4952999;28;19931;-78
2022/11/17 08:37:55;;;;;;;;;;;10.30;98.00;;;;;;4958510;28;19934;-78
2022/11/17 08:40:22;;;;;;;;;;;10.30;98.00;;;;;;4954717;28;19930;-77
2022/11/17 08:42:52;;;;;;;;;;;10.30;97.90;;;;;;4950596;28;19938;-78
2022/11/17 08:45:18;;;;;;;;;;;10.30;97.90;;;;;;4952653;28;20368;-78
2022/11/17 08:47:46;;;;;;;;;;;10.30;97.80;;;;;;4952415;28;20558;-78
2022/11/17 08:50:13;;;;;;;;;;;10.30;97.80;;;;;;4952886;28;19934;-78
2022/11/17 08:52:40;;;;;;;;;;;10.40;97.90;;;;;;4954056;28;19937;-79
2022/11/17 08:55:07;;;;;;;;;;;10.40;97.80;;;;;;4953861;28;19934;-78
2022/11/17 08:57:33;;;;;;;;;;;10.40;97.80;;;;;;4955434;28;19930;-78
2022/11/17 09:00:00;;;;;;;;;;;10.40;97.80;;;;;;4954675;28;19930;-78
2022/11/17 09:02:27;;;;;;;;;;;10.50;97.80;;;;;;4950737;28;19942;-78
2022/11/17 09:04:55;;;;;;;;;;;10.50;97.70;;;;;;4953190;28;20015;-78
2022/11/17 09:07:21;;;;;;;;;;;10.50;97.60;;;;;;4956630;28;20127;-77
2022/11/17 09:09:48;;;;;;;;;;;10.50;97.60;;;;;;4956810;28;19930;-78
2022/11/17 09:12:15;;;;;;;;;;;10.50;97.50;;;;;;4951842;28;19953;-78
2022/11/17 09:14:41;;;;;;;;;;;10.60;97.50;;;;;;4950329;28;19978;-78
2022/11/17 09:17:08;;;;;;;;;;;10.60;97.50;;;;;;4948203;28;20311;-78
2022/11/17 09:19:34;;;;;;;;;;;10.60;97.50;;;;;;4953921;28;19931;-79
2022/11/17 09:22:02;;;;;;;;;;;10.60;97.40;;;;;;4954742;28;19930;-78
2022/11/17 09:24:29;;;;;;;;;;;10.70;97.40;;;;;;4952182;28;19931;-78
2022/11/17 09:26:56;;;;;;;;;;;10.70;97.30;;;;;;4954301;28;19930;-77
2022/11/17 09:29:23;;;;;;;;;;;10.70;97.20;;;;;;4949681;28;19953;-78
2022/11/17 09:31:49;;;;;;;;;;;10.80;97.20;;;;;;4954994;28;19953;-78
2022/11/17 09:34:16;;;;;;;;;;;10.80;97.10;;;;;;4952443;28;19957;-78
2022/11/17 09:36:43;;;;;;;;;;;10.80;97.00;;;;;;4952481;28;19946;-78
2022/11/17 09:39:11;;;;;;;;;;;10.80;96.90;;;;;;4955460;28;19937;-78
2022/11/17 09:41:40;;;;;;;;;;;10.90;96.90;;;;;;4958146;28;19942;-77
2022/11/17 09:44:13;;;;;;;;;;;10.90;96.80;;;;;;4965658;28;19933;-77
2022/11/17 09:46:46;;;;;;;;;;;10.90;96.70;;;;;;4969615;28;19927;-78
2022/11/17 09:49:14;;;;;;;;;;;10.90;97.00;;;;;;4967747;28;19934;-77
2022/11/17 09:51:42;;;;;;;;;;;11.00;96.70;;;;;;4965909;28;20213;-78
2022/11/17 09:54:14;;;;;;;;;;;11.00;96.60;;;;;;4964492;28;19941;-78
2022/11/17 09:56:41;;;;;;;;;;;11.00;96.40;;;;;;4962080;28;19937;-78
2022/11/17 09:59:10;;;;;;;;;;;11.10;96.30;;;;;;4970489;28;19926;-78
2022/11/17 10:01:37;;;;;;;;;;;11.10;96.30;;;;;;4967037;28;20432;-77
2022/11/17 10:04:08;;;;;;;;;;;11.10;96.20;;;;;;4967955;28;19926;-77
2022/11/17 10:06:36;;;;;;;;;;;11.10;96.10;;;;;;4970306;28;19937;-78
2022/11/17 10:09:06;;;;;;;;;;;11.20;96.10;;;;;;4965821;28;19989;-78
2022/11/17 10:11:35;;;;;;;;;;;11.20;95.90;;;;;;4959885;28;19937;-78
2022/11/17 10:14:03;;;;;;;;;;;11.20;95.90;;;;;;4965259;28;19930;-77
2022/11/17 10:16:30;;;;;;;;;;;11.20;95.90;;;;;;4957463;28;19930;-79
2022/11/17 10:18:57;;;;;;;;;;;11.20;95.80;;;;;;4957452;28;19942;-78
2022/11/17 10:21:24;;;;;;;;;;;11.20;95.70;;;;;;4959343;28;20455;-77
2022/11/17 10:23:54;;;;;;;;;;;11.20;95.60;;;;;;4963751;28;19930;-78
2022/11/17 10:26:21;;;;;;;;;;;11.30;95.60;;;;;;4962033;28;19977;-78
2022/11/17 10:29:04;;;;;;;;;;;11.30;95.80;;;;;;4962772;28;19937;-78
2022/11/17 10:31:39;;;;;;;;;;;11.40;95.60;;;;;;4958593;28;20304;-77
2022/11/17 10:34:08;;;;;;;;;;;11.40;95.40;;;;;;4962730;28;19930;-77
2022/11/17 10:36:34;;;;;;;;;;;11.50;95.20;;;;;;4956616;28;19930;-77
2022/11/17 10:39:01;;;;;;;;;;;11.60;94.50;;;;;;4956151;28;19930;-77
2022/11/17 10:41:29;;;;;;;;;;;11.70;94.50;;;;;;4957877;28;19966;-78
2022/11/17 10:44:00;;;;;;;;;;;11.70;94.50;;;;;;4960966;28;19930;-78
2022/11/17 10:46:27;;;;;;;;;;;11.80;94.50;;;;;;4958814;28;19978;-77
2022/11/17 10:48:55;;;;;;;;;;;11.80;94.60;;;;;;4958134;28;19931;-77
2022/11/17 10:51:22;;;;;;;;;;;11.80;94.50;;;;;;4957090;28;20690;-78
2022/11/17 10:54:00;;;;;;;;;;;11.90;94.50;;;;;;4958765;28;19930;-77
2022/11/17 10:56:27;;;;;;;;;;;11.90;94.70;;;;;;4966552;28;19934;-78
2022/11/17 10:59:00;;;;;;;;;;;11.90;94.70;;;;;;4962706;28;19929;-78
2022/11/17 11:01:27;;;;;;;;;;;11.90;94.80;;;;;;4957999;28;19934;-77
2022/11/17 11:03:54;;;;;;;;;;;11.80;94.90;;;;;;4964108;28;19931;-78
2022/11/17 11:06:22;;;;;;;;;;;11.80;95.00;;;;;;4963993;28;19937;-78
2022/11/17 11:08:51;;;;;;;;;;;11.80;95.10;;;;;;4965736;28;19934;-78
2022/11/17 11:11:21;;;;;;;;;;;11.80;95.20;;;;;;4962177;28;19937;-78
2022/11/17 11:13:51;;;;;;;;;;;11.80;95.30;;;;;;4959753;28;19941;-78
2022/11/17 11:16:19;;;;;;;;;;;11.80;95.30;;;;;;4960642;28;19934;-79
2022/11/17 11:18:46;;;;;;;;;;;11.80;95.50;;;;;;4966627;28;19937;-77
2022/11/17 11:21:16;;;;;;;;;;;11.70;95.70;;;;;;4966374;28;19937;-77
2022/11/17 11:23:45;;;;;;;;;;;11.80;95.60;;;;;;4959405;28;19934;-77
2022/11/17 11:26:19;;;;;;;;;;;11.70;95.60;;;;;;4961676;28;19926;-78
2022/11/17 11:28:54;;;;;;;;;;;11.70;95.70;;;;;;4955835;28;19942;-77
2022/11/17 11:31:27;;;;;;;;;;;11.70;95.70;;;;;;4957929;28;19937;-78
2022/11/17 11:33:56;;;;;;;;;;;11.70;95.80;;;;;;4964090;28;20523;-77
2022/11/17 11:36:26;;;;;;;;;;;11.70;95.80;;;;;;4962012;28;19934;-78
2022/11/17 11:38:56;;;;;;;;;;;11.70;95.90;;;;;;4966411;28;19930;-77
2022/11/17 11:41:38;;;;;;;;;;;11.70;96.00;;;;;;4959696;28;19937;-77
2022/11/17 11:44:18;;;;;;;;;;;11.70;96.00;;;;;;4962686;28;19942;-76
2022/11/17 11:46:49;;;;;;;;;;;11.70;96.10;;;;;;4958680;28;20676;-77
2022/11/17 11:49:21;;;;;;;;;;;11.70;96.10;;;;;;4957999;28;19942;-77
2022/11/17 11:51:49;;;;;;;;;;;11.70;96.20;;;;;;4954897;28;20182;-76
2022/11/17 11:54:20;;;;;;;;;;;11.70;96.10;;;;;;4953854;28;19934;-76
2022/11/17 11:56:48;;;;;;;;;;;11.70;96.20;;;;;;4958782;28;20315;-76
2022/11/17 11:59:16;;;;;;;;;;;11.70;96.20;;;;;;4947586;28;19937;-76
2022/11/17 12:01:46;;;;;;;;;;;11.70;96.10;;;;;;4952778;28;19930;-75
2022/11/17 12:04:20;;;;;;;;;;;11.70;95.90;;;;;;4956786;28;19933;-76
2022/11/17 12:06:53;;;;;;;;;;;11.90;95.80;;;;;;4957018;28;19930;-76
2022/11/17 12:09:30;;;;;;;;;;;11.90;95.80;;;;;;4952356;28;20021;-76
2022/11/17 12:12:00;;;;;;;;;;;11.90;95.60;;;;;;4952680;28;19930;-75
2022/11/17 12:14:27;;;;;;;;;;;11.90;95.40;;;;;;4959453;28;20731;-76
2022/11/17 12:17:00;;;;;;;;;;;12.00;95.30;;;;;;4949832;28;20307;-77
2022/11/17 12:19:57;;;;;;;;;;;12.00;95.20;;;;;;4952927;28;19931;-77
2022/11/17 12:22:39;;;;;;;;;;;12.00;95.00;;;;;;4895856;29;19931;-77
2022/11/17 12:25:14;;;;;;;;;;;12.00;94.60;;;;;;4938398;28;19930;-77
2022/11/17 12:27:42;;;;;;;;;;;12.00;94.40;;;;;;4953749;28;19946;-75
2022/11/17 12:30:24;;;;;;;;;;;12.00;94.50;;;;;;4957593;28;19930;-76
2022/11/17 12:32:51;;;;;;;;;;;12.00;94.60;;;;;;4955872;28;19942;-76
2022/11/17 12:35:23;;;;;;;;;;;12.00;94.60;;;;;;4959612;28;19934;-76
2022/11/17 12:37:49;;;;;;;;;;;12.00;94.50;;;;;;4953288;28;19930;-77
2022/11/17 12:40:31;;;;;;;;;;;12.00;94.50;;;;;;4956619;28;21237;-76
2022/11/17 12:43:16;;;;;;;;;;;12.00;94.30;;;;;;4958768;28;19930;-77
2022/11/17 12:45:54;;;;;;;;;;;12.00;94.40;;;;;;4958623;28;19957;-75
2022/11/17 12:48:21;;;;;;;;;;;12.00;94.40;;;;;;4958734;28;20345;-77
2022/11/17 12:50:53;;;;;;;;;;;12.00;94.60;;;;;;4954652;28;19938;-76
2022/11/17 12:53:24;;;;;;;;;;;12.00;94.60;;;;;;4954008;28;19989;-77
2022/11/17 12:55:56;;;;;;;;;;;12.10;94.60;;;;;;4952052;28;19930;-77
2022/11/17 12:58:26;;;;;;;;;;;12.10;94.50;;;;;;4952822;28;20739;-77
2022/11/17 13:01:00;;;;;;;;;;;12.10;94.40;;;;;;4951359;28;20016;-77
2022/11/17 13:03:34;;;;;;;;;;;12.10;94.40;;;;;;4950479;28;19934;-77
2022/11/17 13:06:07;;;;;;;;;;;12.10;94.40;;;;;;4957260;28;19930;-76
2022/11/17 13:08:34;;;;;;;;;;;12.10;94.30;;;;;;4945651;28;19969;-77
2022/11/17 13:11:05;;;;;;;;;;;12.10;94.30;;;;;;4953501;28;19930;-76
2022/11/17 13:13:32;;;;;;;;;;;12.10;94.40;;;;;;4951649;28;19936;-76
2022/11/17 13:16:00;;;;;;;;;;;12.10;94.50;;;;;;4953623;28;20040;-76
2022/11/17 13:18:31;;;;;;;;;;;12.10;94.60;;;;;;4951545;28;19945;-76
2022/11/17 13:20:58;;;;;;;;;;;12.10;94.70;;;;;;4958596;28;20481;-76
2022/11/17 13:23:26;;;;;;;;;;;12.10;94.70;;;;;;4944127;28;19942;-76
2022/11/17 13:26:07;;;;;;;;;;;12.10;94.70;;;;;;4957175;28;19937;-77
2022/11/17 13:28:34;;;;;;;;;;;12.20;94.80;;;;;;4951319;28;20005;-77
2022/11/17 13:31:02;;;;;;;;;;;12.10;94.80;;;;;;4952931;28;19930;-76
2022/11/17 13:33:29;;;;;;;;;;;12.20;94.70;;;;;;4953745;28;19945;-76
2022/11/17 13:36:16;;;;;;;;;;;12.20;94.50;;;;;;4954930;28;19930;-77
2022/11/17 13:38:49;;;;;;;;;;;12.20;94.50;;;;;;4952860;28;19969;-77
2022/11/17 13:41:16;;;;;;;;;;;12.20;94.50;;;;;;4948841;28;20881;-77
2022/11/17 13:43:44;;;;;;;;;;;12.20;94.50;;;;;;4948021;28;20378;-75
2022/11/17 13:46:12;;;;;;;;;;;12.20;94.50;;;;;;4955472;28;19934;-76
2022/11/17 13:48:40;;;;;;;;;;;12.20;94.50;;;;;;4951390;28;19934;-76
2022/11/17 13:51:17;;;;;;;;;;;12.20;94.50;;;;;;4953767;28;20927;-77
2022/11/17 13:53:44;;;;;;;;;;;12.20;94.50;;;;;;4952103;28;20189;-76
2022/11/17 13:56:20;;;;;;;;;;;12.20;94.50;;;;;;4953238;28;20320;-76
2022/11/17 13:58:47;;;;;;;;;;;12.20;94.50;;;;;;4953299;28;20810;-76
2022/11/17 14:01:20;;;;;;;;;;;12.20;94.50;;;;;;4950562;28;19934;-75
2022/11/17 14:03:46;;;;;;;;;;;12.20;94.50;;;;;;4954957;28;19942;-77
2022/11/17 14:06:13;;;;;;;;;;;12.20;94.60;;;;;;4947958;28;20434;-76
2022/11/17 14:08:41;;;;;;;;;;;12.20;94.70;;;;;;4948318;28;19930;-77
2022/11/17 14:11:14;;;;;;;;;;;12.20;94.90;;;;;;4948389;28;19933;-75
2022/11/17 14:13:42;;;;;;;;;;;12.20;95.00;;;;;;4945243;28;19937;-76
2022/11/17 14:16:19;;;;;;;;;;;12.10;95.00;;;;;;4949426;28;20013;-77
2022/11/17 14:18:54;;;;;;;;;;;12.10;95.00;;;;;;4944055;28;19950;-76
2022/11/17 14:21:20;;;;;;;;;;;12.10;95.20;;;;;;4956337;28;20318;-76
2022/11/17 14:23:47;;;;;;;;;;;12.10;95.30;;;;;;4946635;28;19941;-76
2022/11/17 14:26:18;;;;;;;;;;;12.10;95.30;;;;;;4952366;28;19930;-76
2022/11/17 14:28:45;;;;;;;;;;;12.10;95.40;;;;;;4945335;28;19962;-76
2022/11/17 14:31:12;;;;;;;;;;;12.10;95.50;;;;;;4943188;28;19930;-77
2022/11/17 14:33:40;;;;;;;;;;;12.10;95.70;;;;;;4948656;28;19935;-76
2022/11/17 14:36:10;;;;;;;;;;;12.00;96.00;;;;;;4950804;28;19934;-76
2022/11/17 14:38:36;;;;;;;;;;;12.00;96.50;;;;;;4949744;28;20024;-77
2022/11/17 14:41:03;;;;;;;;;;;12.00;96.70;;;;;;4953067;28;19937;-78
2022/11/17 14:43:30;;;;;;;;;;;12.00;97.00;;;;;;4950326;28;19930;-77
2022/11/17 14:45:57;;;;;;;;;;;12.00;96.70;;;;;;4950108;28;20388;-78
2022/11/17 14:48:24;;;;;;;;;;;11.90;96.70;;;;;;4952552;28;19934;-77
2022/11/17 14:50:56;;;;;;;;;;;12.00;96.80;;;;;;4952437;28;19934;-77
2022/11/17 14:53:25;;;;;;;;;;;11.90;96.80;;;;;;4951460;28;22336;-77
2022/11/17 14:55:52;;;;;;;;;;;11.90;96.80;;;;;;4944978;28;19931;-76